sensor_id;sensor_type;location;lat;lon;timestamp;temperature;humidity
36374;DHT22;22399;51.346;12.372;2024-03-07T00:00:12;5.90;99.90
36374;DHT22;22399;51.346;12.372;2024-03-07T00:02:47;5.90;99.90
36374;DHT22;22399;51.346;12.372;2024-03-07T00:05:18;5.90;99.90
36374;DHT22;22399;51.346;12.372;2024-03-07T00:07:47;5.90;99.90
36374;DHT22;22399;51.346;12.372;2024-03-07T00:10:16;5.90;99.90
36374;DHT22;22399;51.346;12.372;2024-03-07T00:12:45;6.00;99.90
36374;DHT22;22399;51.346;12.372;2024-03-07T00:15:15;5.90;99.90
36374;DHT22;22399;51.346;12.372;2024-03-07T00:17:46;5.90;99.90
36374;DHT22;22399;51.346;12.372;2024-03-07T00:20:15;5.90;99.90
36374;DHT22;22399;51.346;12.372;2024-03-07T00:22:47;5.80;99.90
36374;DHT22;22399;51.346;12.372;2024-03-07T00:25:15;5.80;99.90
36374;DHT22;22399;51.346;12.372;2024-03-07T00:27:48;5.70;99.90
36374;DHT22;22399;51.346;12.372;2024-03-07T00:30:19;5.70;99.90
36374;DHT22;22399;51.346;12.372;2024-03-07T00:32:49;5.70;99.90
36374;DHT22;22399;51.346;12.372;2024-03-07T00:35:18;5.70;99.90
36374;DHT22;22399;51.346;12.372;2024-03-07T00:37:48;5.70;99.90
36374;DHT22;22399;51.346;12.372;2024-03-07T00:40:16;5.60;99.90
36374;DHT22;22399;51.346;12.372;2024-03-07T00:42:44;5.60;99.90
36374;DHT22;22399;51.346;12.372;2024-03-07T00:45:13;5.60;99.90
36374;DHT22;22399;51.346;12.372;2024-03-07T00:47:41;5.60;99.90
36374;DHT22;22399;51.346;12.372;2024-03-07T00:50:11;5.70;99.90
36374;DHT22;22399;51.346;12.372;2024-03-07T00:52:40;5.70;99.90
36374;DHT22;22399;51.346;12.372;2024-03-07T00:55:09;5.80;99.90
36374;DHT22;22399;51.346;12.372;2024-03-07T00:57:37;5.80;99.90
36374;DHT22;22399;51.346;12.372;2024-03-07T01:00:07;5.80;99.90
36374;DHT22;22399;51.346;12.372;2024-03-07T01:02:42;5.80;99.90
36374;DHT22;22399;51.346;12.372;2024-03-07T01:05:13;5.80;99.90
36374;DHT22;22399;51.346;12.372;2024-03-07T01:07:42;5.80;99.90
36374;DHT22;22399;51.346;12.372;2024-03-07T01:10:12;5.70;99.90
36374;DHT22;22399;51.346;12.372;2024-03-07T01:12:40;5.70;99.90
36374;DHT22;22399;51.346;12.372;2024-03-07T01:15:10;5.70;99.90
36374;DHT22;22399;51.346;12.372;2024-03-07T01:17:38;5.70;99.90
36374;DHT22;22399;51.346;12.372;2024-03-07T01:20:08;5.70;99.90
36374;DHT22;22399;51.346;12.372;2024-03-07T01:22:38;5.80;99.90
36374;DHT22;22399;51.346;12.372;2024-03-07T01:25:07;5.80;99.90
36374;DHT22;22399;51.346;12.372;2024-03-07T01:27:35;5.90;99.90
36374;DHT22;22399;51.346;12.372;2024-03-07T01:30:04;5.90;99.90
36374;DHT22;22399;51.346;12.372;2024-03-07T01:32:35;5.80;99.90
36374;DHT22;22399;51.346;12.372;2024-03-07T01:35:04;5.90;99.90
36374;DHT22;22399;51.346;12.372;2024-03-07T01:37:34;5.90;99.90
36374;DHT22;22399;51.346;12.372;2024-03-07T01:40:05;5.80;99.90
36374;DHT22;22399;51.346;12.372;2024-03-07T01:42:34;5.80;99.90
36374;DHT22;22399;51.346;12.372;2024-03-07T01:45:03;5.70;99.90
36374;DHT22;22399;51.346;12.372;2024-03-07T01:47:31;5.70;99.90
36374;DHT22;22399;51.346;12.372;2024-03-07T01:50:00;5.80;99.90
36374;DHT22;22399;51.346;12.372;2024-03-07T01:52:29;5.80;99.90
36374;DHT22;22399;51.346;12.372;2024-03-07T01:54:58;5.80;99.90
36374;DHT22;22399;51.346;12.372;2024-03-07T01:57:28;5.80;99.90
36374;DHT22;22399;51.346;12.372;2024-03-07T01:59:57;5.80;99.90
36374;DHT22;22399;51.346;12.372;2024-03-07T02:02:25;5.70;99.90
36374;DHT22;22399;51.346;12.372;2024-03-07T02:04:54;5.70;99.90
36374;DHT22;22399;51.346;12.372;2024-03-07T02:07:22;5.60;99.90
36374;DHT22;22399;51.346;12.372;2024-03-07T02:09:59;5.60;99.90
36374;DHT22;22399;51.346;12.372;2024-03-07T02:12:29;5.60;99.90
36374;DHT22;22399;51.346;12.372;2024-03-07T02:14:57;5.60;99.90
36374;DHT22;22399;51.346;12.372;2024-03-07T02:17:26;5.60;99.90
36374;DHT22;22399;51.346;12.372;2024-03-07T02:19:54;5.60;99.90
36374;DHT22;22399;51.346;12.372;2024-03-07T02:22:24;5.60;99.90
36374;DHT22;22399;51.346;12.372;2024-03-07T02:24:53;5.60;99.90
36374;DHT22;22399;51.346;12.372;2024-03-07T02:27:21;5.60;99.90
36374;DHT22;22399;51.346;12.372;2024-03-07T02:29:49;5.60;99.90
36374;DHT22;22399;51.346;12.372;2024-03-07T02:32:18;5.70;99.90
36374;DHT22;22399;51.346;12.372;2024-03-07T02:34:46;5.70;99.90
36374;DHT22;22399;51.346;12.372;2024-03-07T02:37:15;5.60;99.90
36374;DHT22;22399;51.346;12.372;2024-03-07T02:39:45;5.60;99.90
36374;DHT22;22399;51.346;12.372;2024-03-07T02:42:13;5.60;99.90
36374;DHT22;22399;51.346;12.372;2024-03-07T02:44:41;5.60;99.90
36374;DHT22;22399;51.346;12.372;2024-03-07T02:47:10;5.60;99.90
36374;DHT22;22399;51.346;12.372;2024-03-07T02:49:38;5.60;99.90
36374;DHT22;22399;51.346;12.372;2024-03-07T02:52:07;5.60;99.90
36374;DHT22;22399;51.346;12.372;2024-03-07T02:54:35;5.60;99.90
36374;DHT22;22399;51.346;12.372;2024-03-07T02:57:05;5.60;99.90
36374;DHT22;22399;51.346;12.372;2024-03-07T02:59:33;5.70;99.90
36374;DHT22;22399;51.346;12.372;2024-03-07T03:02:02;5.70;99.90
36374;DHT22;22399;51.346;12.372;2024-03-07T03:04:30;5.70;99.90
36374;DHT22;22399;51.346;12.372;2024-03-07T03:06:58;5.60;99.90
36374;DHT22;22399;51.346;12.372;2024-03-07T03:09:27;5.70;99.90
36374;DHT22;22399;51.346;12.372;2024-03-07T03:11:55;5.70;99.90
36374;DHT22;22399;51.346;12.372;2024-03-07T03:14:25;5.70;99.90
36374;DHT22;22399;51.346;12.372;2024-03-07T03:16:53;5.70;99.90
36374;DHT22;22399;51.346;12.372;2024-03-07T03:19:23;5.70;99.90
36374;DHT22;22399;51.346;12.372;2024-03-07T03:21:53;5.70;99.90
36374;DHT22;22399;51.346;12.372;2024-03-07T03:24:23;5.60;99.90
36374;DHT22;22399;51.346;12.372;2024-03-07T03:26:52;5.70;99.90
36374;DHT22;22399;51.346;12.372;2024-03-07T03:29:21;5.60;99.90
36374;DHT22;22399;51.346;12.372;2024-03-07T03:31:51;5.60;99.90
36374;DHT22;22399;51.346;12.372;2024-03-07T03:34:19;5.60;99.90
36374;DHT22;22399;51.346;12.372;2024-03-07T03:36:48;5.70;99.90
36374;DHT22;22399;51.346;12.372;2024-03-07T03:39:16;5.70;99.90
36374;DHT22;22399;51.346;12.372;2024-03-07T03:41:47;5.70;99.90
36374;DHT22;22399;51.346;12.372;2024-03-07T03:44:16;5.70;99.90
36374;DHT22;22399;51.346;12.372;2024-03-07T03:46:45;5.70;99.90
36374;DHT22;22399;51.346;12.372;2024-03-07T03:49:15;5.70;99.90
36374;DHT22;22399;51.346;12.372;2024-03-07T03:51:44;5.80;99.90
36374;DHT22;22399;51.346;12.372;2024-03-07T03:54:14;5.80;99.90
36374;DHT22;22399;51.346;12.372;2024-03-07T03:56:43;5.80;99.90
36374;DHT22;22399;51.346;12.372;2024-03-07T03:59:11;5.80;99.90
36374;DHT22;22399;51.346;12.372;2024-03-07T04:01:40;5.80;99.90
36374;DHT22;22399;51.346;12.372;2024-03-07T04:04:08;5.80;99.90
36374;DHT22;22399;51.346;12.372;2024-03-07T04:06:38;5.80;99.90
36374;DHT22;22399;51.346;12.372;2024-03-07T04:09:06;5.80;99.90
36374;DHT22;22399;51.346;12.372;2024-03-07T04:11:35;5.80;99.90
36374;DHT22;22399;51.346;12.372;2024-03-07T04:14:03;5.80;99.90
36374;DHT22;22399;51.346;12.372;2024-03-07T04:16:32;5.80;99.90
36374;DHT22;22399;51.346;12.372;2024-03-07T04:19:00;5.80;99.90
36374;DHT22;22399;51.346;12.372;2024-03-07T04:21:28;5.90;99.90
36374;DHT22;22399;51.346;12.372;2024-03-07T04:23:58;5.90;99.90
36374;DHT22;22399;51.346;12.372;2024-03-07T04:26:27;5.80;99.90
36374;DHT22;22399;51.346;12.372;2024-03-07T04:28:55;5.80;99.90
36374;DHT22;22399;51.346;12.372;2024-03-07T04:31:25;5.80;99.90
36374;DHT22;22399;51.346;12.372;2024-03-07T04:33:53;5.70;99.90
36374;DHT22;22399;51.346;12.372;2024-03-07T04:36:22;5.70;99.90
36374;DHT22;22399;51.346;12.372;2024-03-07T04:38:50;5.70;99.90
36374;DHT22;22399;51.346;12.372;2024-03-07T04:41:20;5.70;99.90
36374;DHT22;22399;51.346;12.372;2024-03-07T04:43:49;5.70;99.90
36374;DHT22;22399;51.346;12.372;2024-03-07T04:46:17;5.70;99.90
36374;DHT22;22399;51.346;12.372;2024-03-07T04:48:45;5.70;99.90
36374;DHT22;22399;51.346;12.372;2024-03-07T04:51:14;5.70;99.90
36374;DHT22;22399;51.346;12.372;2024-03-07T04:53:42;5.70;99.90
36374;DHT22;22399;51.346;12.372;2024-03-07T04:56:11;5.70;99.90
36374;DHT22;22399;51.346;12.372;2024-03-07T04:58:41;5.70;99.90
36374;DHT22;22399;51.346;12.372;2024-03-07T05:01:10;5.70;99.90
36374;DHT22;22399;51.346;12.372;2024-03-07T05:03:38;5.70;99.90
36374;DHT22;22399;51.346;12.372;2024-03-07T05:06:07;5.60;99.90
36374;DHT22;22399;51.346;12.372;2024-03-07T05:08:35;5.60;99.90
36374;DHT22;22399;51.346;12.372;2024-03-07T05:11:03;5.60;99.90
36374;DHT22;22399;51.346;12.372;2024-03-07T05:13:32;5.60;99.90
36374;DHT22;22399;51.346;12.372;2024-03-07T05:16:02;5.60;99.90
36374;DHT22;22399;51.346;12.372;2024-03-07T05:18:31;5.60;99.90
36374;DHT22;22399;51.346;12.372;2024-03-07T05:21:00;5.60;99.90
36374;DHT22;22399;51.346;12.372;2024-03-07T05:23:49;5.60;99.90
36374;DHT22;22399;51.346;12.372;2024-03-07T05:26:17;5.60;99.90
36374;DHT22;22399;51.346;12.372;2024-03-07T05:28:45;5.50;99.90
36374;DHT22;22399;51.346;12.372;2024-03-07T05:31:15;5.50;99.90
36374;DHT22;22399;51.346;12.372;2024-03-07T05:33:45;5.50;99.90
36374;DHT22;22399;51.346;12.372;2024-03-07T05:36:13;5.40;99.90
36374;DHT22;22399;51.346;12.372;2024-03-07T05:38:42;5.40;99.90
36374;DHT22;22399;51.346;12.372;2024-03-07T05:41:11;5.40;99.90
36374;DHT22;22399;51.346;12.372;2024-03-07T05:43:40;5.30;99.90
36374;DHT22;22399;51.346;12.372;2024-03-07T05:46:08;5.30;99.90
36374;DHT22;22399;51.346;12.372;2024-03-07T05:48:39;5.20;99.90
36374;DHT22;22399;51.346;12.372;2024-03-07T05:51:08;5.10;99.90
36374;DHT22;22399;51.346;12.372;2024-03-07T05:53:37;5.10;99.90
36374;DHT22;22399;51.346;12.372;2024-03-07T05:56:06;5.00;99.90
36374;DHT22;22399;51.346;12.372;2024-03-07T05:58:36;4.90;99.90
36374;DHT22;22399;51.346;12.372;2024-03-07T06:01:04;4.90;99.90
36374;DHT22;22399;51.346;12.372;2024-03-07T06:03:35;4.90;99.90
36374;DHT22;22399;51.346;12.372;2024-03-07T06:06:05;4.90;99.90
36374;DHT22;22399;51.346;12.372;2024-03-07T06:08:38;4.90;99.90
36374;DHT22;22399;51.346;12.372;2024-03-07T06:11:09;4.80;99.90
36374;DHT22;22399;51.346;12.372;2024-03-07T06:13:38;4.80;99.90
36374;DHT22;22399;51.346;12.372;2024-03-07T06:16:06;4.90;99.90
36374;DHT22;22399;51.346;12.372;2024-03-07T06:18:35;4.90;99.90
36374;DHT22;22399;51.346;12.372;2024-03-07T06:21:05;4.90;99.90
36374;DHT22;22399;51.346;12.372;2024-03-07T06:23:33;4.80;99.90
36374;DHT22;22399;51.346;12.372;2024-03-07T06:26:02;4.80;99.90
36374;DHT22;22399;51.346;12.372;2024-03-07T06:28:39;4.80;99.90
36374;DHT22;22399;51.346;12.372;2024-03-07T06:31:08;4.80;99.90
36374;DHT22;22399;51.346;12.372;2024-03-07T06:33:36;4.70;99.90
36374;DHT22;22399;51.346;12.372;2024-03-07T06:36:06;4.70;99.90
36374;DHT22;22399;51.346;12.372;2024-03-07T06:38:35;4.80;99.90
36374;DHT22;22399;51.346;12.372;2024-03-07T06:41:04;4.90;99.90
36374;DHT22;22399;51.346;12.372;2024-03-07T06:43:33;4.90;99.90
36374;DHT22;22399;51.346;12.372;2024-03-07T06:46:02;5.00;99.90
36374;DHT22;22399;51.346;12.372;2024-03-07T06:48:30;5.00;99.90
36374;DHT22;22399;51.346;12.372;2024-03-07T06:50:58;5.00;99.90
36374;DHT22;22399;51.346;12.372;2024-03-07T06:53:28;5.00;99.90
36374;DHT22;22399;51.346;12.372;2024-03-07T06:55:57;5.10;99.90
36374;DHT22;22399;51.346;12.372;2024-03-07T06:58:25;5.10;99.90
36374;DHT22;22399;51.346;12.372;2024-03-07T07:00:57;5.10;99.90
36374;DHT22;22399;51.346;12.372;2024-03-07T07:03:27;5.20;99.90
36374;DHT22;22399;51.346;12.372;2024-03-07T07:05:56;5.50;99.90
36374;DHT22;22399;51.346;12.372;2024-03-07T07:08:24;5.80;99.90
36374;DHT22;22399;51.346;12.372;2024-03-07T07:10:54;6.00;99.90
36374;DHT22;22399;51.346;12.372;2024-03-07T07:13:22;6.00;99.90
36374;DHT22;22399;51.346;12.372;2024-03-07T07:15:52;6.00;99.90
36374;DHT22;22399;51.346;12.372;2024-03-07T07:18:21;6.00;99.90
36374;DHT22;22399;51.346;12.372;2024-03-07T07:20:51;6.10;99.90
36374;DHT22;22399;51.346;12.372;2024-03-07T07:23:20;6.00;99.90
36374;DHT22;22399;51.346;12.372;2024-03-07T07:25:48;6.00;99.90
36374;DHT22;22399;51.346;12.372;2024-03-07T07:28:18;6.20;99.90
36374;DHT22;22399;51.346;12.372;2024-03-07T07:30:47;5.90;99.90
36374;DHT22;22399;51.346;12.372;2024-03-07T07:33:17;6.00;99.90
36374;DHT22;22399;51.346;12.372;2024-03-07T07:35:50;6.40;99.90
36374;DHT22;22399;51.346;12.372;2024-03-07T07:38:24;6.60;99.90
36374;DHT22;22399;51.346;12.372;2024-03-07T07:40:55;6.80;99.90
36374;DHT22;22399;51.346;12.372;2024-03-07T07:43:25;6.90;99.90
36374;DHT22;22399;51.346;12.372;2024-03-07T07:46:08;7.10;99.90
36374;DHT22;22399;51.346;12.372;2024-03-07T07:48:37;7.40;99.90
36374;DHT22;22399;51.346;12.372;2024-03-07T07:51:06;7.50;99.90
36374;DHT22;22399;51.346;12.372;2024-03-07T07:53:35;7.60;99.90
36374;DHT22;22399;51.346;12.372;2024-03-07T07:56:03;7.50;99.90
36374;DHT22;22399;51.346;12.372;2024-03-07T07:58:33;7.50;99.90
36374;DHT22;22399;51.346;12.372;2024-03-07T08:01:02;7.60;99.90
36374;DHT22;22399;51.346;12.372;2024-03-07T08:03:31;7.70;99.90
36374;DHT22;22399;51.346;12.372;2024-03-07T08:06:03;7.90;99.90
36374;DHT22;22399;51.346;12.372;2024-03-07T08:08:32;8.10;99.90
36374;DHT22;22399;51.346;12.372;2024-03-07T08:11:02;8.10;99.90
36374;DHT22;22399;51.346;12.372;2024-03-07T08:13:32;8.00;99.90
36374;DHT22;22399;51.346;12.372;2024-03-07T08:16:00;8.00;99.90
36374;DHT22;22399;51.346;12.372;2024-03-07T08:18:29;8.10;99.90
36374;DHT22;22399;51.346;12.372;2024-03-07T08:20:58;8.10;99.90
36374;DHT22;22399;51.346;12.372;2024-03-07T08:23:26;8.10;99.90
36374;DHT22;22399;51.346;12.372;2024-03-07T08:25:56;8.10;99.90
36374;DHT22;22399;51.346;12.372;2024-03-07T08:28:24;8.20;99.90
36374;DHT22;22399;51.346;12.372;2024-03-07T08:30:54;8.40;99.90
36374;DHT22;22399;51.346;12.372;2024-03-07T08:33:22;8.40;99.90
36374;DHT22;22399;51.346;12.372;2024-03-07T08:35:51;8.30;99.90
36374;DHT22;22399;51.346;12.372;2024-03-07T08:38:20;8.20;99.90
36374;DHT22;22399;51.346;12.372;2024-03-07T08:40:48;8.20;99.90
36374;DHT22;22399;51.346;12.372;2024-03-07T08:43:17;8.40;99.90
36374;DHT22;22399;51.346;12.372;2024-03-07T08:45:45;8.40;99.90
36374;DHT22;22399;51.346;12.372;2024-03-07T08:48:15;8.40;99.90
36374;DHT22;22399;51.346;12.372;2024-03-07T08:50:44;8.60;99.90
36374;DHT22;22399;51.346;12.372;2024-03-07T08:53:12;8.50;99.90
36374;DHT22;22399;51.346;12.372;2024-03-07T08:55:40;8.50;99.90
36374;DHT22;22399;51.346;12.372;2024-03-07T08:58:10;8.40;99.90
36374;DHT22;22399;51.346;12.372;2024-03-07T09:00:38;8.50;99.90
36374;DHT22;22399;51.346;12.372;2024-03-07T09:03:07;8.70;99.90
36374;DHT22;22399;51.346;12.372;2024-03-07T09:05:41;8.80;99.90
36374;DHT22;22399;51.346;12.372;2024-03-07T09:08:09;9.30;99.90
36374;DHT22;22399;51.346;12.372;2024-03-07T09:10:38;9.30;99.90
36374;DHT22;22399;51.346;12.372;2024-03-07T09:13:08;9.10;99.90
36374;DHT22;22399;51.346;12.372;2024-03-07T09:15:38;8.70;99.90
36374;DHT22;22399;51.346;12.372;2024-03-07T09:18:06;8.50;99.90
36374;DHT22;22399;51.346;12.372;2024-03-07T09:20:35;8.50;99.90
36374;DHT22;22399;51.346;12.372;2024-03-07T09:23:06;8.60;99.90
36374;DHT22;22399;51.346;12.372;2024-03-07T09:25:35;8.70;99.90
36374;DHT22;22399;51.346;12.372;2024-03-07T09:28:04;9.00;99.90
36374;DHT22;22399;51.346;12.372;2024-03-07T09:30:33;8.70;99.90
36374;DHT22;22399;51.346;12.372;2024-03-07T09:33:06;8.70;99.90
36374;DHT22;22399;51.346;12.372;2024-03-07T09:35:39;8.60;99.90
36374;DHT22;22399;51.346;12.372;2024-03-07T09:38:09;8.90;99.90
36374;DHT22;22399;51.346;12.372;2024-03-07T09:40:38;9.30;99.90
36374;DHT22;22399;51.346;12.372;2024-03-07T09:43:07;9.30;99.90
36374;DHT22;22399;51.346;12.372;2024-03-07T09:45:38;9.30;99.90
36374;DHT22;22399;51.346;12.372;2024-03-07T09:48:10;8.70;99.90
36374;DHT22;22399;51.346;12.372;2024-03-07T09:50:40;8.30;99.90
36374;DHT22;22399;51.346;12.372;2024-03-07T09:53:12;8.10;99.90
36374;DHT22;22399;51.346;12.372;2024-03-07T09:55:41;7.80;99.90
36374;DHT22;22399;51.346;12.372;2024-03-07T09:58:11;7.70;99.90
36374;DHT22;22399;51.346;12.372;2024-03-07T10:00:40;7.60;99.90
36374;DHT22;22399;51.346;12.372;2024-03-07T10:03:10;7.50;99.90
36374;DHT22;22399;51.346;12.372;2024-03-07T10:05:41;7.60;99.90
36374;DHT22;22399;51.346;12.372;2024-03-07T10:08:11;8.20;99.90
36374;DHT22;22399;51.346;12.372;2024-03-07T10:10:41;8.50;99.90
36374;DHT22;22399;51.346;12.372;2024-03-07T10:13:12;8.40;99.90
36374;DHT22;22399;51.346;12.372;2024-03-07T10:15:40;8.30;99.90
36374;DHT22;22399;51.346;12.372;2024-03-07T10:18:10;8.20;99.90
36374;DHT22;22399;51.346;12.372;2024-03-07T10:20:42;8.30;99.90
36374;DHT22;22399;51.346;12.372;2024-03-07T10:23:18;8.30;99.90
36374;DHT22;22399;51.346;12.372;2024-03-07T10:25:47;8.30;99.90
36374;DHT22;22399;51.346;12.372;2024-03-07T10:28:16;8.60;99.90
36374;DHT22;22399;51.346;12.372;2024-03-07T10:30:44;9.00;99.90
36374;DHT22;22399;51.346;12.372;2024-03-07T10:33:13;8.70;99.90
36374;DHT22;22399;51.346;12.372;2024-03-07T10:35:42;8.50;99.90
36374;DHT22;22399;51.346;12.372;2024-03-07T10:38:10;8.30;99.90
36374;DHT22;22399;51.346;12.372;2024-03-07T10:40:44;8.40;99.90
36374;DHT22;22399;51.346;12.372;2024-03-07T10:43:13;8.40;99.90
36374;DHT22;22399;51.346;12.372;2024-03-07T10:45:45;8.20;99.90
36374;DHT22;22399;51.346;12.372;2024-03-07T10:48:17;8.00;99.90
36374;DHT22;22399;51.346;12.372;2024-03-07T10:50:54;8.20;99.90
36374;DHT22;22399;51.346;12.372;2024-03-07T10:53:29;8.80;99.90
36374;DHT22;22399;51.346;12.372;2024-03-07T10:56:16;9.20;99.90
36374;DHT22;22399;51.346;12.372;2024-03-07T10:58:57;9.40;99.90
36374;DHT22;22399;51.346;12.372;2024-03-07T11:01:26;9.60;99.90
36374;DHT22;22399;51.346;12.372;2024-03-07T11:03:58;9.90;99.90
36374;DHT22;22399;51.346;12.372;2024-03-07T11:06:28;10.10;99.90
36374;DHT22;22399;51.346;12.372;2024-03-07T11:08:56;10.40;99.90
36374;DHT22;22399;51.346;12.372;2024-03-07T11:11:28;10.20;99.90
36374;DHT22;22399;51.346;12.372;2024-03-07T11:13:58;10.20;99.90
36374;DHT22;22399;51.346;12.372;2024-03-07T11:16:26;10.00;99.90
36374;DHT22;22399;51.346;12.372;2024-03-07T11:19:21;9.80;99.90
36374;DHT22;22399;51.346;12.372;2024-03-07T11:21:53;10.10;99.90
36374;DHT22;22399;51.346;12.372;2024-03-07T11:24:23;10.50;99.90
36374;DHT22;22399;51.346;12.372;2024-03-07T11:26:55;10.70;99.50
36374;DHT22;22399;51.346;12.372;2024-03-07T11:29:43;10.50;98.80
36374;DHT22;22399;51.346;12.372;2024-03-07T11:32:13;9.90;98.10
36374;DHT22;22399;51.346;12.372;2024-03-07T11:34:43;9.50;98.00
36374;DHT22;22399;51.346;12.372;2024-03-07T11:37:17;9.20;98.00
36374;DHT22;22399;51.346;12.372;2024-03-07T11:39:50;8.90;98.30
36374;DHT22;22399;51.346;12.372;2024-03-07T11:42:25;8.80;97.60
36374;DHT22;22399;51.346;12.372;2024-03-07T11:44:55;8.80;97.70
36374;DHT22;22399;51.346;12.372;2024-03-07T11:47:34;8.70;97.20
36374;DHT22;22399;51.346;12.372;2024-03-07T11:50:03;8.40;97.00
36374;DHT22;22399;51.346;12.372;2024-03-07T11:52:35;8.20;96.60
36374;DHT22;22399;51.346;12.372;2024-03-07T11:55:07;8.00;96.60
36374;DHT22;22399;51.346;12.372;2024-03-07T11:57:38;7.80;96.50
36374;DHT22;22399;51.346;12.372;2024-03-07T12:00:11;7.50;96.30
36374;DHT22;22399;51.346;12.372;2024-03-07T12:02:41;7.40;96.40
36374;DHT22;22399;51.346;12.372;2024-03-07T12:05:10;7.20;96.20
36374;DHT22;22399;51.346;12.372;2024-03-07T12:07:43;7.20;96.30
36374;DHT22;22399;51.346;12.372;2024-03-07T12:10:12;7.20;96.20
36374;DHT22;22399;51.346;12.372;2024-03-07T12:12:42;7.40;96.00
36374;DHT22;22399;51.346;12.372;2024-03-07T12:15:10;7.20;95.80
36374;DHT22;22399;51.346;12.372;2024-03-07T12:17:47;7.20;95.70
36374;DHT22;22399;51.346;12.372;2024-03-07T12:20:17;7.30;95.80
36374;DHT22;22399;51.346;12.372;2024-03-07T12:22:59;7.30;95.70
36374;DHT22;22399;51.346;12.372;2024-03-07T12:25:29;7.30;95.30
36374;DHT22;22399;51.346;12.372;2024-03-07T12:28:03;7.30;95.10
36374;DHT22;22399;51.346;12.372;2024-03-07T12:30:34;7.30;99.90
36374;DHT22;22399;51.346;12.372;2024-03-07T12:33:05;7.10;99.90
36374;DHT22;22399;51.346;12.372;2024-03-07T12:35:34;7.10;99.90
36374;DHT22;22399;51.346;12.372;2024-03-07T12:38:03;7.00;99.90
36374;DHT22;22399;51.346;12.372;2024-03-07T12:40:31;7.00;99.90
36374;DHT22;22399;51.346;12.372;2024-03-07T12:43:12;7.10;99.90
36374;DHT22;22399;51.346;12.372;2024-03-07T12:45:43;7.30;99.90
36374;DHT22;22399;51.346;12.372;2024-03-07T12:48:12;7.70;99.90
36374;DHT22;22399;51.346;12.372;2024-03-07T12:50:41;8.10;99.90
36374;DHT22;22399;51.346;12.372;2024-03-07T12:53:09;8.40;99.90
36374;DHT22;22399;51.346;12.372;2024-03-07T12:55:40;9.00;99.90
36374;DHT22;22399;51.346;12.372;2024-03-07T13:56:22;8.80;99.90
36374;DHT22;22399;51.346;12.372;2024-03-07T13:59:16;9.10;99.90
36374;DHT22;22399;51.346;12.372;2024-03-07T14:02:02;9.40;99.90
36374;DHT22;22399;51.346;12.372;2024-03-07T14:05:23;9.60;99.90
36374;DHT22;22399;51.346;12.372;2024-03-07T14:14:30;9.20;91.40
36374;DHT22;22399;51.346;12.372;2024-03-07T14:20:54;9.40;91.30
36374;DHT22;22399;51.346;12.372;2024-03-07T14:23:39;9.60;91.10
36374;DHT22;22399;51.346;12.372;2024-03-07T14:29:22;10.30;90.80
36374;DHT22;22399;51.346;12.372;2024-03-07T14:31:55;10.60;90.30
36374;DHT22;22399;51.346;12.372;2024-03-07T14:34:36;10.60;89.60
36374;DHT22;22399;51.346;12.372;2024-03-07T14:37:19;10.10;89.90
36374;DHT22;22399;51.346;12.372;2024-03-07T14:39:52;9.90;90.30
36374;DHT22;22399;51.346;12.372;2024-03-07T14:42:23;10.20;89.80
36374;DHT22;22399;51.346;12.372;2024-03-07T14:44:51;10.40;89.40
36374;DHT22;22399;51.346;12.372;2024-03-07T14:47:20;10.40;88.90
36374;DHT22;22399;51.346;12.372;2024-03-07T14:49:49;10.40;88.80
36374;DHT22;22399;51.346;12.372;2024-03-07T14:52:18;10.20;88.80
36374;DHT22;22399;51.346;12.372;2024-03-07T14:54:49;10.00;89.30
36374;DHT22;22399;51.346;12.372;2024-03-07T14:57:17;10.00;89.10
36374;DHT22;22399;51.346;12.372;2024-03-07T14:59:49;9.90;88.70
36374;DHT22;22399;51.346;12.372;2024-03-07T15:02:18;9.40;89.90
36374;DHT22;22399;51.346;12.372;2024-03-07T15:04:48;8.90;90.30
36374;DHT22;22399;51.346;12.372;2024-03-07T15:07:17;8.60;90.70
36374;DHT22;22399;51.346;12.372;2024-03-07T15:09:50;8.40;91.00
36374;DHT22;22399;51.346;12.372;2024-03-07T15:12:19;8.40;91.20
36374;DHT22;22399;51.346;12.372;2024-03-07T15:14:47;8.10;91.30
36374;DHT22;22399;51.346;12.372;2024-03-07T15:17:34;7.90;91.60
36374;DHT22;22399;51.346;12.372;2024-03-07T15:20:02;7.80;91.70
36374;DHT22;22399;51.346;12.372;2024-03-07T15:22:35;7.80;91.90
36374;DHT22;22399;51.346;12.372;2024-03-07T15:25:03;7.80;91.70
36374;DHT22;22399;51.346;12.372;2024-03-07T15:27:39;7.60;91.60
36374;DHT22;22399;51.346;12.372;2024-03-07T15:30:08;7.60;91.60
36374;DHT22;22399;51.346;12.372;2024-03-07T15:32:41;7.50;91.60
36374;DHT22;22399;51.346;12.372;2024-03-07T15:35:10;7.40;91.60
36374;DHT22;22399;51.346;12.372;2024-03-07T15:37:46;7.50;91.80
36374;DHT22;22399;51.346;12.372;2024-03-07T15:40:16;7.50;91.60
36374;DHT22;22399;51.346;12.372;2024-03-07T15:42:45;7.50;91.50
36374;DHT22;22399;51.346;12.372;2024-03-07T15:45:15;7.50;91.40
36374;DHT22;22399;51.346;12.372;2024-03-07T15:47:44;7.40;91.30
36374;DHT22;22399;51.346;12.372;2024-03-07T15:50:13;7.20;91.30
36374;DHT22;22399;51.346;12.372;2024-03-07T15:52:41;7.10;91.40
36374;DHT22;22399;51.346;12.372;2024-03-07T15:55:11;7.00;91.60
36374;DHT22;22399;51.346;12.372;2024-03-07T15:57:42;7.00;91.40
36374;DHT22;22399;51.346;12.372;2024-03-07T16:00:12;7.00;91.40
36374;DHT22;22399;51.346;12.372;2024-03-07T16:02:54;7.00;91.40
36374;DHT22;22399;51.346;12.372;2024-03-07T16:05:24;7.00;91.40
36374;DHT22;22399;51.346;12.372;2024-03-07T16:07:57;7.00;91.40
36374;DHT22;22399;51.346;12.372;2024-03-07T16:10:28;6.90;91.40
36374;DHT22;22399;51.346;12.372;2024-03-07T16:12:58;6.90;91.40
36374;DHT22;22399;51.346;12.372;2024-03-07T16:15:28;6.90;91.40
36374;DHT22;22399;51.346;12.372;2024-03-07T16:18:08;6.80;91.30
36374;DHT22;22399;51.346;12.372;2024-03-07T16:20:38;6.80;91.30
36374;DHT22;22399;51.346;12.372;2024-03-07T16:23:08;6.80;91.30
36374;DHT22;22399;51.346;12.372;2024-03-07T16:25:38;6.80;91.40
36374;DHT22;22399;51.346;12.372;2024-03-07T16:28:07;6.80;91.40
36374;DHT22;22399;51.346;12.372;2024-03-07T16:30:38;6.80;91.30
36374;DHT22;22399;51.346;12.372;2024-03-07T16:33:11;6.80;91.30
36374;DHT22;22399;51.346;12.372;2024-03-07T16:35:45;6.70;91.30
36374;DHT22;22399;51.346;12.372;2024-03-07T16:38:15;6.70;91.30
36374;DHT22;22399;51.346;12.372;2024-03-07T16:40:44;6.60;91.30
36374;DHT22;22399;51.346;12.372;2024-03-07T16:43:16;6.60;91.30
36374;DHT22;22399;51.346;12.372;2024-03-07T16:45:45;6.60;91.30
36374;DHT22;22399;51.346;12.372;2024-03-07T16:48:14;6.60;91.30
36374;DHT22;22399;51.346;12.372;2024-03-07T16:50:43;6.50;91.30
36374;DHT22;22399;51.346;12.372;2024-03-07T16:53:15;6.50;91.30
36374;DHT22;22399;51.346;12.372;2024-03-07T16:55:45;6.40;91.50
36374;DHT22;22399;51.346;12.372;2024-03-07T16:58:15;6.40;91.50
36374;DHT22;22399;51.346;12.372;2024-03-07T17:00:44;6.40;91.50